Minnekata, South Dakota
Current Conditions -  °F | °C
As of 3:53 PM on Thursday 20 Nov 2014 (Local Time) from KCUT Reporting Station
Clear Clear  
Wind Chill:   Ceiling: Unl
Heat Index:   Visibility: 10mi
Dew Point: -8°   Wind: 8mph
Humidity: 38%   Direction: 260°W
Pressure: 29.89"   Gusts: NA
Location:  43.346°N, 103.483°W
Report Text: KCUT 202253Z AUTO 26007KT 10SM CLR 05/M08 A2989 RMK AO2 SLP144 T00501083
Loading
Personal Weather Stations






























Interactive Weather Map New forecast layout! Learn more

10-Day Weather Forecast

Advertisements
Track Severe Weather on mobile